Akron Fulton International Airport
KAKR : now visible

Airfield :











YOU CAN JOIN US ON...

 
LOGIN :

Register | Disclaimer

   EN    FR    IT 

 









Legend :    VFR   Marginal VFR   IFR   Intensive IFR   Very Intensive IFR
Visi :
Ceiling :
>= 8 km
>= 3000ft
5 to 8 km
1000 to 3000 ft
1500m to 5 km
500 to 1000 ft
800 to 1500m
200 to 500 ft
< 800m
< 200 ft
Symbols :   Thunderstorms  Fog  Heavy snow  Heavy precipitations  Wind > 20 kt






- Airport Elevation : 1067 ft


KAKR - Akron Fulton International

CURRENT METAR :
  • 291554Z AUTO 02007KT 3SM -RA BR FEW007 SCT014 OVC040 08/06 A2971 RMK AO2 SLP062 P0012 T00780056

EXPIRED METARs :
  • 291454Z AUTO 04006KT 4SM -RA BR FEW006 OVC038 08/06 A2971 RMK AO2 SLP064 P0007 60023 T00780056 58019
  • 291421Z AUTO 07007KT 5SM -RA BR SCT006 OVC036 08/06 A2973 RMK AO2 P0003 T00780056
  • 291404Z AUTO 04007KT 3SM -RA BKN006 BKN042 OVC050 08/05 A2974 RMK AO2 P0002 T00780050
  • 291354Z AUTO 03006KT 2 1/2SM -RA BR OVC006 08/06 A2975 RMK AO2 CIG 004V009 SLP075 P0008 T00780056
  • 291335Z AUTO 01005KT 3SM -RA BR BKN007 BKN014 OVC034 08/06 A2976 RMK AO2 P0005 T00780056

TAF N/A
KZOB FIR / North America



MET'MAP, your aeronautical weather chart ! - Copyright ORBIFLY December 2007 - Disclaimer

ORBIFLY MET'MAP TEAM :

Programming & Development : Alexandra Zaïnal
Concept & original design : Baudouin d'Aumeries
Assistance for programming : Marc-Olivier Méhu
Technical & hardware support : Manuel Goepfert

Contact : metmap@orbifly.com




SOURCES & CREDITS :

   NOAA       Earth
Advisory